createdAt,value
2022-10-09T00:01:13.564Z,6.15
2022-10-09T00:03:43.847Z,6.00
2022-10-09T00:06:19.783Z,5.72
2022-10-09T00:08:47.710Z,5.50
2022-10-09T00:11:17.831Z,5.72
2022-10-09T00:13:46.241Z,5.22
2022-10-09T00:16:15.381Z,5.53
2022-10-09T00:18:44.739Z,5.53
2022-10-09T00:21:20.270Z,5.72
2022-10-09T00:23:48.670Z,6.43
2022-10-09T00:26:16.941Z,7.00
2022-10-09T00:28:45.555Z,6.80
2022-10-09T00:31:14.338Z,7.40
2022-10-09T00:33:42.577Z,8.00
2022-10-09T00:36:13.129Z,7.10
2022-10-09T00:38:43.266Z,7.25
2022-10-09T00:41:15.184Z,6.38
2022-10-09T00:43:46.872Z,6.15
2022-10-09T00:46:25.302Z,6.97
2022-10-09T00:48:59.366Z,7.70
2022-10-09T00:51:28.431Z,6.15
2022-10-09T00:53:57.767Z,6.18
2022-10-09T00:56:26.402Z,7.20
2022-10-09T00:58:57.343Z,7.18
2022-10-09T01:01:25.137Z,6.05
2022-10-09T01:03:52.997Z,5.97
2022-10-09T01:06:27.999Z,6.50
2022-10-09T01:09:06.008Z,7.05
2022-10-09T01:11:42.456Z,6.90
2022-10-09T01:14:18.522Z,7.35
2022-10-09T01:16:52.681Z,6.90
2022-10-09T01:19:36.575Z,7.38
2022-10-09T01:22:14.985Z,7.00
2022-10-09T01:24:49.086Z,7.68
2022-10-09T01:27:23.300Z,7.85
2022-10-09T01:29:55.329Z,7.72
2022-10-09T01:32:27.051Z,7.18
2022-10-09T01:34:55.466Z,8.32
2022-10-09T01:37:24.492Z,6.88
2022-10-09T01:39:53.410Z,6.82
2022-10-09T01:42:26.095Z,6.57
2022-10-09T01:44:54.029Z,6.70
2022-10-09T01:47:23.149Z,6.32
2022-10-09T01:49:55.905Z,6.63
2022-10-09T01:52:40.972Z,5.90
2022-10-09T01:55:26.665Z,6.28
2022-10-09T01:58:05.397Z,5.88
2022-10-09T02:00:38.000Z,6.43
2022-10-09T02:03:09.785Z,6.53
2022-10-09T02:05:39.930Z,6.70
2022-10-09T02:08:09.402Z,6.28
2022-10-09T02:10:38.979Z,6.15
2022-10-09T02:13:09.551Z,6.53
2022-10-09T02:15:43.607Z,6.32
2022-10-09T02:18:16.177Z,5.85
2022-10-09T02:20:49.231Z,6.25
2022-10-09T02:23:19.053Z,6.28
2022-10-09T02:25:47.289Z,6.32
2022-10-09T02:28:16.997Z,6.25
2022-10-09T02:30:49.177Z,6.47
2022-10-09T02:33:16.959Z,6.13
2022-10-09T02:35:44.976Z,6.40
2022-10-09T02:38:12.661Z,6.65
2022-10-09T02:40:40.368Z,6.78
2022-10-09T02:43:08.512Z,6.10
2022-10-09T02:45:37.574Z,6.70
2022-10-09T02:48:06.418Z,6.75
2022-10-09T02:50:34.267Z,6.15
2022-10-09T02:53:01.953Z,6.55
2022-10-09T02:55:30.019Z,6.50
2022-10-09T02:57:57.732Z,5.78
2022-10-09T03:00:25.476Z,6.25
2022-10-09T03:02:54.620Z,6.75
2022-10-09T03:05:22.373Z,6.18
2022-10-09T03:07:53.038Z,6.13
2022-10-09T03:10:21.880Z,6.07
2022-10-09T03:12:49.961Z,6.28
2022-10-09T03:15:17.992Z,5.97
2022-10-09T03:17:45.778Z,6.30
2022-10-09T03:20:15.179Z,6.38
2022-10-09T03:22:43.433Z,5.70
2022-10-09T03:25:11.191Z,5.75
2022-10-09T03:27:38.914Z,6.80
2022-10-09T03:30:08.040Z,5.90
2022-10-09T03:32:35.739Z,5.70
2022-10-09T03:35:03.819Z,6.07
2022-10-09T03:37:33.136Z,5.72
2022-10-09T03:40:00.910Z,6.25
2022-10-09T03:42:29.052Z,6.28
2022-10-09T03:44:57.533Z,5.88
2022-10-09T03:47:25.385Z,6.00
2022-10-09T03:49:53.473Z,6.18
2022-10-09T03:52:21.251Z,6.90
2022-10-09T03:54:50.379Z,6.45
2022-10-09T03:57:18.172Z,6.70
2022-10-09T03:59:45.859Z,6.25
2022-10-09T04:02:13.596Z,6.47
2022-10-09T04:04:41.312Z,6.85
2022-10-09T04:07:09.032Z,6.30
2022-10-09T04:09:36.830Z,6.78
2022-10-09T04:12:06.043Z,6.38
2022-10-09T04:14:33.759Z,6.40
2022-10-09T04:17:01.592Z,6.60
2022-10-09T04:19:29.285Z,6.75
2022-10-09T04:21:56.953Z,6.18
2022-10-09T04:24:24.708Z,5.88
2022-10-09T04:26:52.600Z,5.93
2022-10-09T04:29:21.653Z,6.32
2022-10-09T04:31:49.440Z,6.05
2022-10-09T04:34:17.373Z,6.20
2022-10-09T04:36:45.330Z,6.40
2022-10-09T04:39:13.314Z,6.32
2022-10-09T04:41:41.063Z,6.18
2022-10-09T04:44:08.861Z,5.78
2022-10-09T04:46:37.896Z,6.43
2022-10-09T04:49:05.617Z,6.57
2022-10-09T04:51:33.498Z,6.82
2022-10-09T04:54:02.296Z,7.15
2022-10-09T04:56:29.983Z,6.53
2022-10-09T04:58:57.725Z,6.75
2022-10-09T05:01:27.216Z,6.10
2022-10-09T05:03:56.911Z,6.60
2022-10-09T05:06:25.903Z,6.78
2022-10-09T05:08:55.636Z,6.82
2022-10-09T05:11:26.136Z,6.85
2022-10-09T05:13:54.968Z,6.65
2022-10-09T05:16:24.889Z,6.05
2022-10-09T05:18:54.719Z,6.43
2022-10-09T05:21:24.404Z,6.60
2022-10-09T05:23:53.852Z,6.45
2022-10-09T05:26:23.449Z,6.65
2022-10-09T05:28:51.233Z,6.72
2022-10-09T05:31:21.212Z,7.15
2022-10-09T05:33:50.026Z,6.30
2022-10-09T05:36:18.393Z,6.85
2022-10-09T05:38:47.577Z,6.55
2022-10-09T05:41:17.200Z,6.72
2022-10-09T05:43:47.412Z,6.57
2022-10-09T05:46:17.023Z,6.15
2022-10-09T05:48:47.088Z,6.80
2022-10-09T05:51:17.064Z,6.00
2022-10-09T05:53:48.403Z,6.47
2022-10-09T05:56:18.194Z,5.88
2022-10-09T05:58:50.950Z,6.32
2022-10-09T06:01:19.212Z,6.53
2022-10-09T06:03:50.740Z,6.60
2022-10-09T06:06:19.500Z,6.45
2022-10-09T06:08:48.640Z,6.40
2022-10-09T06:11:18.561Z,6.28
2022-10-09T06:13:47.011Z,6.80
2022-10-09T06:16:16.994Z,6.20
2022-10-09T06:18:49.272Z,6.55
2022-10-09T06:21:17.677Z,6.40
2022-10-09T06:23:45.975Z,6.72
2022-10-09T06:26:15.239Z,6.30
2022-10-09T06:28:42.959Z,6.07
2022-10-09T06:31:14.181Z,6.45
2022-10-09T06:33:43.920Z,6.50
2022-10-09T06:36:14.233Z,5.68
2022-10-09T06:38:42.918Z,5.90
2022-10-09T06:41:13.490Z,5.68
2022-10-09T06:43:43.247Z,5.57
2022-10-09T06:46:13.352Z,5.95
2022-10-09T06:48:41.800Z,5.50
2022-10-09T06:51:11.493Z,6.25
2022-10-09T06:53:41.860Z,6.85
2022-10-09T06:56:10.417Z,7.55
2022-10-09T06:58:39.231Z,8.48
2022-10-09T07:01:11.101Z,12.30
2022-10-09T07:03:40.483Z,9.50
2022-10-09T07:06:10.613Z,11.20
2022-10-09T07:08:39.318Z,6.55
2022-10-09T07:11:12.051Z,4.28
2022-10-09T07:13:40.162Z,4.65
2022-10-09T07:16:10.224Z,4.35
2022-10-09T07:18:39.044Z,4.47
2022-10-09T07:21:09.496Z,4.13
2022-10-09T07:23:37.758Z,4.60
2022-10-09T07:26:12.525Z,3.97
2022-10-09T07:28:41.414Z,4.07
2022-10-09T07:31:11.538Z,4.65
2022-10-09T07:33:39.654Z,4.57
2022-10-09T07:36:07.855Z,3.90
2022-10-09T07:38:35.882Z,4.22
2022-10-09T07:41:04.919Z,4.03
2022-10-09T07:43:32.716Z,4.35
2022-10-09T07:46:01.277Z,4.07
2022-10-09T07:48:30.675Z,4.30
2022-10-09T07:50:58.461Z,4.20
2022-10-09T07:53:26.480Z,3.85
2022-10-09T07:55:54.206Z,4.45
2022-10-09T07:58:22.315Z,4.13
2022-10-09T08:00:50.213Z,4.20
2022-10-09T08:03:17.911Z,3.97
2022-10-09T08:05:55.041Z,3.75
2022-10-09T08:08:22.900Z,3.50
2022-10-09T08:10:50.652Z,3.33
2022-10-09T08:13:18.411Z,3.45
2022-10-09T08:15:46.695Z,3.50
2022-10-09T08:18:14.733Z,3.35
2022-10-09T08:20:42.444Z,3.60
2022-10-09T08:23:11.500Z,2.88
2022-10-09T08:25:39.321Z,3.20
2022-10-09T08:28:07.367Z,2.72
2022-10-09T08:30:35.087Z,3.38
2022-10-09T08:33:02.802Z,3.30
2022-10-09T08:35:34.405Z,2.70
2022-10-09T08:38:02.377Z,3.00
2022-10-09T08:40:40.569Z,3.08
2022-10-09T08:43:12.065Z,3.15
2022-10-09T08:45:41.507Z,3.20
2022-10-09T08:48:15.984Z,2.70
2022-10-09T08:50:49.693Z,2.85
2022-10-09T08:53:29.725Z,2.58
2022-10-09T08:56:00.358Z,2.55
2022-10-09T08:58:31.716Z,3.00
2022-10-09T09:01:05.524Z,2.88
2022-10-09T09:03:46.493Z,2.70
2022-10-09T09:06:23.453Z,2.97
2022-10-09T09:08:58.222Z,2.80
2022-10-09T09:11:38.106Z,2.67
2022-10-09T09:14:22.634Z,2.55
2022-10-09T09:16:56.324Z,2.50
2022-10-09T09:20:00.968Z,2.35
2022-10-09T09:22:29.144Z,2.72
2022-10-09T09:24:58.530Z,2.60
2022-10-09T09:27:32.407Z,2.50
2022-10-09T09:30:05.362Z,2.60
2022-10-09T09:32:34.092Z,2.40
2022-10-09T09:35:14.195Z,2.42
2022-10-09T09:37:42.021Z,3.63
2022-10-09T09:43:13.044Z,2.40
2022-10-09T09:45:41.002Z,2.50
2022-10-09T09:48:15.259Z,2.00
2022-10-09T09:51:04.962Z,2.47
2022-10-09T09:53:35.044Z,2.30
2022-10-09T09:56:03.274Z,2.50
2022-10-09T09:58:35.588Z,1.95
2022-10-09T10:01:06.315Z,2.22
2022-10-09T10:03:35.939Z,1.90
2022-10-09T10:06:04.047Z,2.00
2022-10-09T10:08:34.086Z,2.15
2022-10-09T10:11:03.524Z,2.03
2022-10-09T10:13:37.923Z,2.22
2022-10-09T10:16:08.124Z,2.08
2022-10-09T10:18:40.151Z,1.70
2022-10-09T10:21:12.278Z,1.60
2022-10-09T10:23:43.795Z,1.60
2022-10-09T10:26:19.535Z,1.70
2022-10-09T10:28:53.907Z,1.60
2022-10-09T10:31:37.167Z,1.45
2022-10-09T10:34:08.449Z,1.67
2022-10-09T10:36:37.261Z,1.40
2022-10-09T10:39:12.151Z,1.55
2022-10-09T10:41:45.919Z,1.48
2022-10-09T10:44:23.512Z,1.63
2022-10-09T10:46:55.766Z,1.85
2022-10-09T10:49:24.290Z,1.88
2022-10-09T10:52:04.360Z,1.40
2022-10-09T10:54:38.511Z,1.83
2022-10-09T10:57:11.598Z,1.70
2022-10-09T10:59:49.728Z,1.35
2022-10-09T11:02:41.013Z,1.67
2022-10-09T11:05:19.330Z,1.70
2022-10-09T11:07:59.924Z,1.63
2022-10-09T11:10:36.871Z,1.48
2022-10-09T11:13:13.785Z,1.42
2022-10-09T11:15:51.790Z,1.52
2022-10-09T11:18:31.890Z,1.45
2022-10-09T11:21:11.092Z,1.40
2022-10-09T11:24:00.352Z,1.70
2022-10-09T11:26:35.479Z,1.48
2022-10-09T11:29:07.559Z,1.33
2022-10-09T11:31:41.517Z,1.35
2022-10-09T11:34:15.745Z,1.55
2022-10-09T11:36:45.487Z,1.20
2022-10-09T11:39:18.084Z,1.30
2022-10-09T11:41:48.167Z,1.20
2022-10-09T11:44:36.914Z,1.58
2022-10-09T11:47:16.784Z,1.40
2022-10-09T11:49:58.832Z,1.60
2022-10-09T11:52:34.913Z,1.27
2022-10-09T11:55:16.840Z,1.40
2022-10-09T11:57:44.584Z,1.20
2022-10-09T12:00:13.744Z,1.33
2022-10-09T12:02:44.174Z,1.45
2022-10-09T12:05:36.405Z,1.33
2022-10-09T12:08:16.949Z,1.30
2022-10-09T12:10:53.953Z,1.17
2022-10-09T12:13:32.117Z,1.05
2022-10-09T12:16:00.928Z,0.93
2022-10-09T12:18:33.265Z,1.67
2022-10-09T12:21:05.781Z,1.02
2022-10-09T12:23:36.445Z,1.73
2022-10-09T12:26:05.405Z,1.10
2022-10-09T12:28:37.601Z,1.00
2022-10-09T12:31:13.953Z,1.00
2022-10-09T12:33:47.693Z,1.30
2022-10-09T12:36:17.170Z,1.50
2022-10-09T12:38:44.935Z,1.67
2022-10-09T12:41:20.893Z,1.60
2022-10-09T12:43:49.975Z,1.10
2022-10-09T12:46:28.008Z,1.17
2022-10-09T12:48:58.169Z,1.40
2022-10-09T12:51:28.020Z,1.55
2022-10-09T12:53:56.336Z,1.30
2022-10-09T12:56:28.015Z,1.25
2022-10-09T12:58:57.013Z,1.15
2022-10-09T13:01:25.470Z,1.40
2022-10-09T13:03:55.450Z,1.13
2022-10-09T13:06:27.679Z,1.30
2022-10-09T13:08:58.096Z,1.48
2022-10-09T13:11:33.090Z,1.45
2022-10-09T13:14:00.941Z,1.75
2022-10-09T13:16:40.143Z,4.30
2022-10-09T13:19:24.059Z,1.50
2022-10-09T13:22:08.035Z,2.25
2022-10-09T13:24:36.449Z,4.53
2022-10-09T13:27:05.539Z,5.93
2022-10-09T13:29:33.223Z,4.18
2022-10-09T13:32:02.837Z,1.85
2022-10-09T13:34:30.722Z,4.93
2022-10-09T13:36:58.401Z,1.90
2022-10-09T13:39:27.531Z,2.30
2022-10-09T13:41:57.304Z,2.00
2022-10-09T13:44:25.106Z,1.30
2022-10-09T13:46:52.805Z,2.25
2022-10-09T13:49:20.519Z,2.45
2022-10-09T13:51:48.219Z,2.35
2022-10-09T13:54:15.981Z,2.95
2022-10-09T13:56:45.054Z,1.50
2022-10-09T13:59:13.329Z,4.63
2022-10-09T14:01:41.124Z,2.60
2022-10-09T14:04:08.917Z,1.60
2022-10-09T14:06:37.209Z,1.38
2022-10-09T14:09:05.770Z,3.25
2022-10-09T14:11:33.942Z,10.60
2022-10-09T14:14:03.352Z,2.80
2022-10-09T14:16:31.660Z,2.30
2022-10-09T14:19:01.593Z,1.70
2022-10-09T14:21:30.267Z,1.40
2022-10-09T14:24:01.549Z,3.35
2022-10-09T14:26:30.315Z,9.27
2022-10-09T14:29:01.042Z,2.20
2022-10-09T14:31:30.818Z,4.80
2022-10-09T14:33:59.879Z,3.67
2022-10-09T14:36:28.282Z,1.60
2022-10-09T14:38:56.200Z,1.63
2022-10-09T14:41:23.938Z,4.30
2022-10-09T14:43:57.088Z,7.43
2022-10-09T14:46:25.343Z,23.33
2022-10-09T14:48:55.514Z,2.30
2022-10-09T14:51:25.372Z,1.50
2022-10-09T14:53:56.655Z,2.10
2022-10-09T14:56:25.265Z,1.45
2022-10-09T14:58:53.156Z,1.33
2022-10-09T15:01:23.372Z,1.50
2022-10-09T15:03:51.784Z,1.23
2022-10-09T15:06:24.051Z,1.60
2022-10-09T15:08:55.439Z,1.40
2022-10-09T15:11:23.948Z,1.60
2022-10-09T15:13:52.026Z,1.77
2022-10-09T15:16:20.854Z,1.30
2022-10-09T15:18:50.553Z,1.45
2022-10-09T15:21:21.621Z,1.60
2022-10-09T15:23:50.469Z,1.60
2022-10-09T15:26:18.774Z,1.50
2022-10-09T15:28:46.625Z,1.60
2022-10-09T15:31:22.853Z,1.55
2022-10-09T15:33:51.390Z,1.50
2022-10-09T15:36:20.790Z,1.58
2022-10-09T15:38:49.340Z,1.50
2022-10-09T15:41:23.455Z,1.52
2022-10-09T15:43:51.835Z,1.50
2022-10-09T15:46:19.672Z,1.63
2022-10-09T15:48:48.735Z,1.73
2022-10-09T15:51:16.878Z,1.40
2022-10-09T15:53:47.888Z,1.70
2022-10-09T15:56:17.685Z,1.60
2022-10-09T15:58:45.846Z,1.50
2022-10-09T16:01:15.963Z,1.60
2022-10-09T16:03:44.690Z,1.65
2022-10-09T16:06:15.013Z,1.60
2022-10-09T16:08:43.387Z,2.53
2022-10-09T16:11:17.887Z,1.70
2022-10-09T16:13:48.545Z,2.00
2022-10-09T16:16:19.907Z,1.40
2022-10-09T16:18:48.925Z,1.50
2022-10-09T16:21:19.190Z,1.70
2022-10-09T16:23:47.429Z,1.73
2022-10-09T16:26:19.249Z,1.80
2022-10-09T16:28:47.764Z,1.80
2022-10-09T16:31:20.200Z,1.90
2022-10-09T16:33:48.116Z,2.50
2022-10-09T16:36:16.587Z,2.10
2022-10-09T16:38:44.672Z,1.80
2022-10-09T16:41:14.998Z,1.80
2022-10-09T16:43:45.020Z,1.70
2022-10-09T16:46:19.354Z,1.60
2022-10-09T16:48:47.800Z,2.00
2022-10-09T16:51:17.892Z,1.70
2022-10-09T16:53:46.419Z,1.95
2022-10-09T16:56:16.657Z,1.90
2022-10-09T16:58:45.761Z,1.80
2022-10-09T17:01:14.461Z,1.60
2022-10-09T17:03:42.830Z,2.00
2022-10-09T17:06:12.674Z,1.98
2022-10-09T17:08:40.848Z,2.22
2022-10-09T17:11:09.663Z,1.70
2022-10-09T17:13:37.960Z,1.90
2022-10-09T17:16:09.011Z,2.42
2022-10-09T17:18:38.014Z,2.65
2022-10-09T17:21:08.158Z,2.55
2022-10-09T17:23:36.652Z,2.15
2022-10-09T17:26:06.629Z,2.10
2022-10-09T17:28:35.623Z,3.15
2022-10-09T17:31:04.891Z,2.28
2022-10-09T17:33:34.645Z,2.00
2022-10-09T17:36:04.253Z,2.10
2022-10-09T17:38:32.046Z,1.90
2022-10-09T17:40:59.812Z,2.00
2022-10-09T17:43:27.692Z,2.20
2022-10-09T17:45:55.819Z,2.30
2022-10-09T17:48:23.677Z,2.60
2022-10-09T17:50:53.882Z,3.38
2022-10-09T17:53:22.615Z,3.08
2022-10-09T17:55:50.775Z,3.17
2022-10-09T17:58:19.266Z,2.97
2022-10-09T18:00:47.910Z,3.17
2022-10-09T18:03:16.188Z,3.08
2022-10-09T18:05:45.238Z,3.28
2022-10-09T18:08:15.694Z,3.15
2022-10-09T18:10:43.640Z,3.40
2022-10-09T18:13:12.535Z,3.40
2022-10-09T18:15:41.820Z,3.50
2022-10-09T18:18:11.198Z,3.80
2022-10-09T18:20:40.669Z,3.65
2022-10-09T18:23:09.619Z,3.88
2022-10-09T18:25:43.829Z,3.95
2022-10-09T18:28:12.225Z,3.60
2022-10-09T18:30:43.076Z,4.00
2022-10-09T18:33:11.017Z,3.90
2022-10-09T18:35:39.787Z,3.72
2022-10-09T18:38:08.757Z,3.60
2022-10-09T18:40:45.206Z,4.20
2022-10-09T18:43:14.877Z,4.13
2022-10-09T18:45:46.947Z,4.85
2022-10-09T18:48:15.514Z,4.05
2022-10-09T18:50:44.169Z,4.47
2022-10-09T18:53:12.787Z,4.93
2022-10-09T18:55:43.643Z,5.18
2022-10-09T18:58:14.947Z,4.95
2022-10-09T19:00:43.517Z,12.38
2022-10-09T19:03:11.395Z,6.15
2022-10-09T19:05:39.095Z,4.28
2022-10-09T19:08:07.125Z,4.50
2022-10-09T19:10:34.876Z,4.22
2022-10-09T19:13:02.620Z,3.80
2022-10-09T19:15:31.866Z,3.92
2022-10-09T19:17:59.612Z,3.28
2022-10-09T19:20:28.951Z,3.20
2022-10-09T19:22:56.739Z,3.60
2022-10-09T19:25:24.797Z,2.95
2022-10-09T19:27:52.773Z,3.10
2022-10-09T19:30:20.757Z,3.30
2022-10-09T19:32:50.096Z,3.63
2022-10-09T19:35:17.999Z,3.58
2022-10-09T19:37:45.734Z,3.47
2022-10-09T19:40:13.568Z,3.47
2022-10-09T19:42:41.378Z,3.30
2022-10-09T19:45:10.392Z,3.72
2022-10-09T19:47:38.147Z,3.78
2022-10-09T19:50:07.628Z,4.30
2022-10-09T19:52:36.841Z,4.10
2022-10-09T19:55:04.989Z,4.25
2022-10-09T19:57:32.961Z,4.20
2022-10-09T20:00:01.012Z,4.10
2022-10-09T20:02:28.794Z,7.10
2022-10-09T20:04:56.586Z,6.72
2022-10-09T20:07:25.816Z,4.50
2022-10-09T20:09:53.540Z,3.80
2022-10-09T20:12:21.411Z,4.45
2022-10-09T20:14:49.115Z,3.92
2022-10-09T20:17:17.170Z,4.15
2022-10-09T20:19:45.861Z,4.72
2022-10-09T20:22:14.023Z,3.90
2022-10-09T20:24:43.092Z,4.00
2022-10-09T20:27:10.923Z,4.20
2022-10-09T20:29:38.934Z,4.43
2022-10-09T20:32:06.775Z,3.83
2022-10-09T20:34:34.444Z,4.10
2022-10-09T20:37:02.829Z,2.95
2022-10-09T20:39:31.055Z,3.42
2022-10-09T20:42:00.239Z,3.15
2022-10-09T20:44:28.030Z,3.03
2022-10-09T20:46:56.778Z,3.65
2022-10-09T20:49:24.867Z,3.17
2022-10-09T20:51:53.101Z,3.30
2022-10-09T20:54:22.238Z,3.33
2022-10-09T20:56:50.919Z,3.40
2022-10-09T20:59:20.029Z,3.20
2022-10-09T21:01:47.804Z,3.13
2022-10-09T21:04:15.574Z,3.47
2022-10-09T21:06:43.503Z,3.00
2022-10-09T21:09:11.289Z,3.53
2022-10-09T21:11:40.394Z,3.80
2022-10-09T21:14:08.667Z,3.40
2022-10-09T21:16:37.760Z,3.05
2022-10-09T21:19:06.866Z,3.35
2022-10-09T21:21:35.106Z,3.08
2022-10-09T21:24:03.675Z,2.80
2022-10-09T21:26:35.433Z,3.03
2022-10-09T21:29:03.816Z,3.03
2022-10-09T21:31:32.634Z,3.42
2022-10-09T21:34:01.944Z,3.70
2022-10-09T21:36:41.103Z,3.40
2022-10-09T21:39:18.886Z,3.28
2022-10-09T21:41:46.635Z,2.83
2022-10-09T21:44:14.610Z,2.80
2022-10-09T21:46:42.315Z,2.90
2022-10-09T21:49:19.505Z,2.90
2022-10-09T21:51:47.459Z,2.67
2022-10-09T21:54:15.390Z,3.20
2022-10-09T21:56:43.113Z,2.90
2022-10-09T21:59:11.284Z,2.80
2022-10-09T22:01:39.268Z,2.60
2022-10-09T22:04:07.007Z,2.47
2022-10-09T22:06:36.073Z,3.00
2022-10-09T22:09:04.269Z,2.80
2022-10-09T22:11:32.023Z,2.67
2022-10-09T22:14:00.786Z,3.15
2022-10-09T22:16:28.506Z,2.75
2022-10-09T22:18:56.240Z,2.50
2022-10-09T22:21:24.052Z,2.80
2022-10-09T22:23:53.120Z,3.22
2022-10-09T22:26:22.839Z,3.58
2022-10-09T22:28:51.089Z,3.72
2022-10-09T22:31:20.617Z,3.47
2022-10-09T22:33:51.752Z,3.85
2022-10-09T22:36:21.994Z,2.90
2022-10-09T22:38:50.215Z,3.05
2022-10-09T22:41:21.039Z,3.13
2022-10-09T22:43:50.764Z,3.00
2022-10-09T22:46:20.396Z,2.83
2022-10-09T22:48:48.072Z,3.10
2022-10-09T22:51:18.158Z,3.45
2022-10-09T22:53:46.814Z,3.70
2022-10-09T22:56:16.768Z,3.40
2022-10-09T22:58:47.108Z,4.03
2022-10-09T23:01:18.595Z,3.90
2022-10-09T23:03:46.389Z,3.47
2022-10-09T23:06:15.610Z,3.88
2022-10-09T23:08:45.600Z,3.60
2022-10-09T23:11:14.352Z,3.90
2022-10-09T23:13:42.446Z,4.00
2022-10-09T23:16:14.209Z,3.90
2022-10-09T23:18:42.848Z,3.75
2022-10-09T23:21:12.793Z,3.97
2022-10-09T23:23:41.085Z,3.97
2022-10-09T23:26:11.003Z,3.55
2022-10-09T23:28:39.581Z,3.83
2022-10-09T23:31:09.785Z,3.75
2022-10-09T23:33:39.457Z,3.55
2022-10-09T23:36:08.704Z,3.55
2022-10-09T23:38:36.595Z,3.30
2022-10-09T23:41:06.413Z,3.22
2022-10-09T23:43:36.357Z,3.00
2022-10-09T23:46:06.441Z,2.70
2022-10-09T23:48:35.288Z,2.53
2022-10-09T23:51:05.104Z,2.90
2022-10-09T23:53:33.412Z,2.78
2022-10-09T23:56:01.145Z,2.92
2022-10-09T23:58:28.853Z,2.78
